Time;durP1;ratioP1;P1;durP2;ratioP2;P2;SDS_P1;SDS_P2;PMS_P1;PMS_P2;Temp;Humidity;BMP_temperature;BMP_pressure;BME280_temperature;BME280_humidity;BME280_pressure;Samples;Min_cycle;Max_cycle;Signal;HPM_P1;HPM_P2
2021/05/03 07:15:21;;;;;;;10.80;5.78;;;;;;;10.26;55.92;99680.63;5127829;27;20354;-85
2021/05/03 07:17:47;;;;;;;8.45;5.28;;;;;;;9.81;55.51;99666.50;5090120;28;20044;-85
2021/05/03 07:20:15;;;;;;;8.63;5.78;;;;;;;10.31;57.08;99683.66;5094905;28;20048;-86
2021/05/03 07:26:01;;;;;;;6.87;5.17;;;;;;;11.00;53.90;99676.94;5068423;28;20047;-86
2021/05/03 07:28:27;;;;;;;9.27;5.93;;;;;;;10.96;54.92;99673.75;5107433;28;20403;-86
2021/05/03 07:30:58;;;;;;;13.07;6.63;;;;;;;11.20;55.04;99672.81;5099684;28;20047;-86
2021/05/03 07:33:24;;;;;;;9.38;5.93;;;;;;;11.27;53.94;99673.78;5093336;28;20498;-86
2021/05/03 07:35:51;;;;;;;7.53;5.57;;;;;;;10.60;54.47;99675.00;5105165;28;20055;-85
2021/05/03 07:38:17;;;;;;;8.73;5.80;;;;;;;10.83;53.62;99678.88;5099670;28;20054;-86
2021/05/03 07:40:44;;;;;;;7.70;5.07;;;;;;;10.61;54.92;99654.09;5105514;28;20050;-86
2021/05/03 07:43:10;;;;;;;8.60;5.15;;;;;;;10.89;53.13;99662.69;5101154;28;20054;-85
2021/05/03 07:45:37;;;;;;;8.68;5.60;;;;;;;10.60;53.06;99679.63;5087656;28;20465;-85
2021/05/03 07:48:05;;;;;;;7.45;5.15;;;;;;;10.84;54.17;99683.28;5103303;28;20059;-85
2021/05/03 07:50:32;;;;;;;8.18;5.50;;;;;;;10.28;53.76;99671.28;5087358;28;20240;-85
2021/05/03 07:52:58;;;;;;;8.98;5.63;;;;;;;10.44;54.77;99670.44;5104664;28;20058;-85
2021/05/03 07:55:25;;;;;;;7.30;4.97;;;;;;;10.37;55.00;99671.28;5088293;28;20587;-84
2021/05/03 07:57:52;;;;;;;10.57;6.05;;;;;;;10.86;54.22;99687.53;5094759;28;20498;-84
2021/05/03 08:00:19;;;;;;;13.07;5.70;;;;;;;11.06;54.43;99663.47;5093236;28;20055;-84
2021/05/03 08:02:46;;;;;;;11.27;5.85;;;;;;;10.79;52.80;99665.63;5087397;28;20059;-83
2021/05/03 08:05:13;;;;;;;13.93;5.93;;;;;;;10.57;53.54;99658.22;5102028;28;20048;-85
2021/05/03 08:07:40;;;;;;;9.10;6.25;;;;;;;10.96;53.09;99681.91;5106358;28;20052;-84
2021/05/03 08:10:08;;;;;;;15.77;5.80;;;;;;;10.59;53.41;99675.19;5093099;28;20040;-84
2021/05/03 08:12:35;;;;;;;8.00;5.38;;;;;;;10.57;54.55;99674.53;5104571;28;20067;-84
2021/05/03 08:15:10;;;;;;;7.40;5.35;;;;;;;10.81;57.79;99668.19;5106332;28;20427;-85
2021/05/03 08:17:37;;;;;;;8.07;5.57;;;;;;;11.02;54.73;99667.59;5094283;28;20483;-85
2021/05/03 08:20:05;;;;;;;8.23;5.25;;;;;;;10.91;52.82;99666.09;5103442;28;20101;-85
2021/05/03 08:22:35;;;;;;;8.63;5.82;;;;;;;11.35;52.70;99667.47;5089424;28;20074;-84
2021/05/03 08:25:01;;;;;;;;;;;;;;;10.83;52.35;99682.44;5100680;28;20406;-84
2021/05/03 08:27:28;;;;;;;9.05;5.70;;;;;;;11.11;52.34;99652.94;5082502;28;19974;-84
2021/05/03 08:29:57;;;;;;;8.13;4.72;;;;;;;11.22;50.71;99668.03;5093000;28;20044;-84
2021/05/03 08:32:23;;;;;;;6.57;4.72;;;;;;;11.20;49.49;99661.91;5083963;28;20052;-84
2021/05/03 08:34:51;;;;;;;6.50;4.85;;;;;;;11.27;49.56;99651.16;5087317;28;20048;-84
2021/05/03 08:37:17;;;;;;;9.13;5.30;;;;;;;11.46;50.14;99658.88;5081382;28;20048;-85
2021/05/03 08:39:45;;;;;;;8.02;4.78;;;;;;;11.38;51.09;99668.97;5083735;28;20052;-84
2021/05/03 08:42:22;;;;;;;8.48;4.63;;;;;;;11.73;48.38;99659.41;5082826;28;20491;-85
2021/05/03 08:44:52;;;;;;;6.65;4.78;;;;;;;11.27;48.64;99653.88;5092001;28;20139;-86
2021/05/03 08:47:19;;;;;;;10.77;4.50;;;;;;;11.58;47.97;99661.22;5079083;28;20495;-85
2021/05/03 08:49:53;;;;;;;9.30;4.80;;;;;;;11.75;48.05;99651.06;5077709;28;20466;-85
2021/05/03 08:52:23;;;;;;;5.78;3.90;;;;;;;11.94;45.40;99653.34;5090234;28;20051;-85
2021/05/03 08:54:52;;;;;;;9.18;5.20;;;;;;;12.37;45.47;99659.13;5085767;28;20043;-85
2021/05/03 08:57:18;;;;;;;6.50;4.75;;;;;;;11.86;44.21;99651.50;5091762;28;20052;-84
2021/05/03 08:59:45;;;;;;;9.18;4.65;;;;;;;11.90;47.87;99645.69;5088754;28;20445;-85
2021/05/03 09:02:14;;;;;;;7.28;5.38;;;;;;;12.68;49.18;99649.94;5091084;28;20487;-87
2021/05/03 09:04:42;;;;;;;6.18;4.68;;;;;;;12.89;47.62;99638.28;5076864;28;20054;-87
2021/05/03 09:07:13;;;;;;;8.93;5.43;;;;;;;13.06;44.30;99640.81;5084995;28;20048;-86
2021/05/03 09:09:41;;;;;;;7.07;4.70;;;;;;;12.77;46.07;99644.38;5080810;28;20081;-87
2021/05/03 09:12:11;;;;;;;6.63;4.65;;;;;;;12.02;44.91;99633.34;5091569;28;20487;-87
2021/05/03 09:14:47;;;;;;;6.13;4.43;;;;;;;11.47;46.93;99625.19;5081426;28;20519;-85
2021/05/03 09:17:22;;;;;;;8.73;4.30;;;;;;;11.20;49.10;99633.84;5073179;28;20112;-86
2021/05/03 09:19:51;;;;;;;10.73;4.45;;;;;;;11.92;47.72;99630.81;5075133;28;20048;-85
2021/05/03 09:22:28;;;;;;;7.93;4.70;;;;;;;11.99;45.70;99614.66;5084505;28;20105;-85
2021/05/03 09:25:14;;;;;;;9.15;5.00;;;;;;;11.75;45.37;99640.16;5091427;28;20058;-85
2021/05/03 09:28:04;;;;;;;12.15;4.97;;;;;;;11.64;45.78;99625.94;5080267;28;20052;-86
2021/05/03 09:30:59;;;;;;;5.32;4.18;;;;;;;11.82;47.64;99617.47;5077750;28;20055;-86
2021/05/03 09:33:32;;;;;;;8.32;4.35;;;;;;;11.65;45.96;99624.03;5085250;28;20143;-85
2021/05/03 09:36:13;;;;;;;6.32;3.85;;;;;;;11.91;47.01;99609.22;5091223;28;20479;-85
2021/05/03 09:38:44;;;;;;;8.25;4.18;;;;;;;12.44;44.14;99612.84;5078577;28;20483;-85
2021/05/03 09:41:20;;;;;;;5.63;4.30;;;;;;;12.34;42.90;99615.00;5085122;28;20048;-85
2021/05/03 09:43:52;;;;;;;7.30;4.00;;;;;;;11.82;46.52;99617.47;5075419;28;20041;-85
2021/05/03 09:46:36;;;;;;;9.43;4.50;;;;;;;12.08;46.54;99607.25;5089367;28;20100;-84
2021/05/03 09:49:09;;;;;;;7.60;4.35;;;;;;;12.64;44.47;99607.69;5081899;28;20060;-85
2021/05/03 09:51:39;;;;;;;8.48;4.18;;;;;;;12.73;43.99;99627.56;5072542;28;20064;-86
2021/05/03 09:54:12;;;;;;;6.80;4.43;;;;;;;12.29;43.58;99603.81;5083264;28;20052;-85
2021/05/03 09:56:54;;;;;;;8.90;4.40;;;;;;;12.09;45.36;99598.03;5082838;28;20056;-87
2021/05/03 09:59:38;;;;;;;7.47;3.70;;;;;;;12.09;44.03;99603.47;5090097;28;20057;-85
2021/05/03 10:02:18;;;;;;;7.72;4.15;;;;;;;12.29;44.63;99592.91;5071838;28;20052;-86
2021/05/03 10:04:50;;;;;;;9.77;4.00;;;;;;;12.21;41.73;99604.75;5075823;28;20502;-85
2021/05/03 10:07:19;;;;;;;5.07;3.80;;;;;;;12.02;44.88;99612.38;5088469;28;20074;-86
2021/05/03 10:09:48;;;;;;;5.80;3.88;;;;;;;11.60;44.51;99602.81;5073434;28;20442;-85
2021/05/03 10:12:17;;;;;;;5.75;4.05;;;;;;;11.98;42.86;99596.59;5078233;28;20105;-85
2021/05/03 10:14:52;;;;;;;6.45;3.60;;;;;;;11.99;44.73;99601.03;5089133;28;20048;-85
2021/05/03 10:17:27;;;;;;;6.60;4.53;;;;;;;12.21;40.90;99597.41;5075063;28;20131;-85
2021/05/03 10:20:00;;;;;;;8.23;4.13;;;;;;;11.99;42.25;99615.47;5088464;28;20052;-86
2021/05/03 10:22:29;;;;;;;6.22;3.97;;;;;;;11.99;41.81;99595.56;5083852;28;20143;-85
2021/05/03 10:25:03;;;;;;;4.88;3.67;;;;;;;12.03;41.46;99613.25;5080933;28;20053;-85
2021/05/03 10:27:31;;;;;;;7.55;4.10;;;;;;;11.88;41.59;99602.28;5086978;28;20048;-85
2021/05/03 10:30:18;;;;;;;5.97;3.42;;;;;;;11.99;43.72;99590.13;5091696;28;20043;-86
2021/05/03 10:32:58;;;;;;;3.95;3.08;;;;;;;12.21;40.02;99604.75;5087813;28;20447;-86
2021/05/03 10:35:25;;;;;;;6.63;3.00;;;;;;;12.48;38.81;99576.00;5090748;28;20055;-86
2021/05/03 10:37:55;;;;;;;4.95;2.67;;;;;;;12.88;36.03;99582.00;5087648;28;20530;-87
2021/05/03 10:40:52;;;;;;;4.40;2.92;;;;;;;13.28;36.48;99576.22;5091849;28;20407;-86
2021/05/03 10:43:26;;;;;;;7.18;2.88;;;;;;;13.62;36.98;99564.63;5076468;28;20114;-86
2021/05/03 10:48:51;;;;;;;7.32;2.65;;;;;;;13.94;34.63;99554.19;5042152;28;20041;-86
2021/05/03 10:51:59;;;;;;;3.67;2.40;;;;;;;13.91;34.90;99553.72;5073805;28;20484;-86
2021/05/03 10:54:36;;;;;;;4.47;2.75;;;;;;;14.31;35.34;99556.78;5033350;28;20413;-87
2021/05/03 10:57:05;;;;;;;4.78;2.08;;;;;;;14.30;33.95;99564.16;5069445;28;20523;-87
2021/05/03 10:59:49;;;;;;;5.53;2.25;;;;;;;14.18;33.61;99548.47;5072963;28;20045;-86
2021/05/03 11:02:25;;;;;;;3.72;2.55;;;;;;;14.05;33.87;99528.22;5079927;28;20067;-84
2021/05/03 11:05:14;;;;;;;4.75;3.10;;;;;;;13.65;34.66;99543.41;5085269;28;20059;-84
2021/05/03 11:08:29;;;;;;;3.83;2.45;;;;;;;14.01;33.84;99523.34;5079994;28;20056;-85
2021/05/03 11:10:57;;;;;;;3.97;2.13;;;;;;;14.64;32.56;99529.66;5086458;28;20152;-86
2021/05/03 11:13:46;;;;;;;6.90;2.78;;;;;;;14.32;32.84;99537.44;5080615;28;20117;-86
2021/05/03 11:16:51;;;;;;;4.63;2.30;;;;;;;15.03;30.71;99530.88;5063418;28;20063;-86
2021/05/03 11:22:42;;;;;;;2.85;2.08;;;;;;;13.54;33.64;99517.47;5084823;28;20499;-84
2021/05/03 11:25:14;;;;;;;11.93;2.60;;;;;;;13.51;33.90;99540.56;5088379;28;20104;-85
2021/05/03 11:27:55;;;;;;;5.80;2.95;;;;;;;13.88;32.61;99530.41;5078633;28;20152;-84
2021/05/03 11:30:28;;;;;;;8.48;2.38;;;;;;;13.66;31.32;99528.72;5086168;28;20044;-84
2021/05/03 11:33:01;;;;;;;3.78;2.40;;;;;;;14.11;33.12;99519.22;5082570;28;20044;-86
2021/05/03 11:35:35;;;;;;;3.28;2.50;;;;;;;14.14;33.34;99527.00;5085701;28;20048;-86
2021/05/03 11:38:06;;;;;;;4.15;2.30;;;;;;;14.37;34.39;99523.16;5084973;28;20179;-86
2021/05/03 11:40:52;;;;;;;3.13;2.20;;;;;;;14.49;33.18;99520.72;5083360;28;20497;-86
2021/05/03 11:46:26;;;;;;;3.72;2.30;;;;;;;15.30;31.24;99500.84;5061814;28;20550;-85
2021/05/03 11:48:56;;;;;;;4.97;1.88;;;;;;;15.20;29.48;99481.22;5088402;28;20123;-86
2021/05/03 11:51:27;;;;;;;2.85;2.00;;;;;;;15.67;30.96;99501.31;5080183;28;20078;-84
2021/05/03 11:53:54;;;;;;;3.05;2.20;;;;;;;15.15;29.14;99479.09;5091162;28;20090;-84
2021/05/03 11:56:27;;;;;;;3.88;1.95;;;;;;;15.22;31.79;99470.94;5083637;28;20044;-85
2021/05/03 11:58:54;;;;;;;2.35;2.15;;;;;;;14.79;31.44;99496.69;5090805;28;20419;-86
2021/05/03 12:01:28;;;;;;;10.10;2.50;;;;;;;14.45;31.98;99492.06;5080198;28;20488;-85
2021/05/03 12:03:58;;;;;;;5.07;1.90;;;;;;;13.85;33.18;99467.06;5074438;28;20126;-85
2021/05/03 12:06:39;;;;;;;3.58;2.30;;;;;;;13.80;32.91;99500.47;5088390;28;20510;-84
2021/05/03 12:09:10;;;;;;;4.15;2.28;;;;;;;13.81;32.69;99464.75;5093469;28;20419;-85
2021/05/03 12:11:53;;;;;;;2.90;2.15;;;;;;;14.57;31.41;99486.88;5090845;28;20136;-84
2021/05/03 12:14:37;;;;;;;2.85;1.90;;;;;;;15.42;32.40;99468.22;5093235;28;20048;-84
2021/05/03 12:17:23;;;;;;;8.95;1.95;;;;;;;15.69;30.90;99476.44;5091525;28;20430;-84
2021/05/03 12:19:51;;;;;;;4.07;2.63;;;;;;;15.64;30.88;99481.69;5085225;28;20502;-85
2021/05/03 12:22:28;;;;;;;7.80;3.03;;;;;;;15.26;30.92;99474.91;5085040;28;20106;-84
2021/05/03 12:25:01;;;;;;;3.38;2.20;;;;;;;15.05;32.28;99481.41;5074439;28;20487;-84
2021/05/03 12:27:36;;;;;;;2.20;2.00;;;;;;;15.35;32.99;99473.66;5075328;28;20294;-84
2021/05/03 12:30:07;;;;;;;6.35;2.40;;;;;;;15.84;31.99;99477.09;5082165;28;20083;-85
2021/05/03 12:32:36;;;;;;;4.20;2.10;;;;;;;15.95;30.19;99469.28;5087969;28;20052;-84
2021/05/03 12:35:09;;;;;;;2.65;1.90;;;;;;;15.52;30.64;99451.34;5082102;28;20132;-83
2021/05/03 12:37:43;;;;;;;2.30;1.70;;;;;;;14.95;30.52;99446.22;5091181;28;20123;-84
2021/05/03 12:40:14;;;;;;;7.90;2.00;;;;;;;15.22;32.57;99429.84;5092188;28;20071;-84
2021/05/03 12:42:45;;;;;;;6.80;2.20;;;;;;;14.91;31.30;99447.66;5089105;28;20105;-85
2021/05/03 12:45:50;;;;;;;5.70;2.08;;;;;;;14.82;32.68;99441.53;5073104;28;20049;-84
2021/05/03 12:51:18;;;;;;;4.18;2.20;;;;;;;15.17;32.59;99418.66;5039550;28;20067;-83
2021/05/03 12:56:38;;;;;;;2.42;2.20;;;;;;;15.77;29.49;99423.31;5071202;28;20045;-83
2021/05/03 12:59:18;;;;;;;5.38;1.80;;;;;;;16.05;29.80;99423.09;5091312;28;20078;-86
2021/05/03 13:01:55;;;;;;;3.42;1.80;;;;;;;15.51;30.12;99412.16;5076912;28;20516;-83
2021/05/03 13:04:46;;;;;;;4.30;2.05;;;;;;;14.86;30.86;99412.72;5074589;28;20056;-84
2021/05/03 13:29:38;;;;;;;3.65;2.03;;;;;;;14.50;31.77;99388.38;5075996;28;20036;-86
2021/05/03 13:32:05;;;;;;;3.42;1.83;;;;;;;14.77;31.25;99377.50;5072908;28;20458;-84
2021/05/03 13:34:33;;;;;;;3.13;2.08;;;;;;;14.55;31.12;99358.50;5089393;28;20040;-84
2021/05/03 13:37:00;;;;;;;3.28;1.98;;;;;;;15.50;33.15;99371.25;5088213;28;20063;-84
2021/05/03 13:39:26;;;;;;;12.85;2.30;;;;;;;15.39;30.73;99359.06;5094031;28;20058;-85
2021/05/03 13:41:56;;;;;;;5.45;1.92;;;;;;;15.10;30.26;99376.72;5079837;28;20052;-84
2021/05/03 13:44:24;;;;;;;5.00;1.65;;;;;;;15.06;31.34;99364.53;5091874;28;20105;-85
2021/05/03 13:46:51;;;;;;;3.95;2.78;;;;;;;15.02;30.93;99355.88;5086801;28;20055;-83
2021/05/03 13:49:23;;;;;;;3.08;2.08;;;;;;;14.69;31.70;99351.19;5092016;28;20044;-84
2021/05/03 13:51:55;;;;;;;3.10;1.83;;;;;;;15.16;33.31;99345.75;5086175;28;20051;-84
2021/05/03 13:54:21;;;;;;;2.67;1.77;;;;;;;15.10;30.11;99344.72;5088176;28;20412;-84
2021/05/03 13:56:59;;;;;;;4.28;1.85;;;;;;;15.51;31.03;99338.16;5071253;28;20222;-84
2021/05/03 13:59:27;;;;;;;2.92;1.50;;;;;;;15.44;29.75;99336.50;5092913;28;20052;-85
2021/05/03 14:02:29;;;;;;;2.25;1.50;;;;;;;15.52;32.12;99334.38;5083479;28;20044;-85
2021/05/03 14:04:59;;;;;;;2.10;1.50;;;;;;;15.33;30.09;99333.34;5091157;28;20467;-84
2021/05/03 14:07:26;;;;;;;5.28;2.13;;;;;;;15.29;30.01;99328.50;5096611;28;20051;-84
2021/05/03 14:09:58;;;;;;;6.57;1.50;;;;;;;15.31;29.53;99324.50;5113205;28;20051;-85
2021/05/03 14:12:25;;;;;;;2.63;1.63;;;;;;;14.95;29.00;99311.22;5081416;28;20048;-84
2021/05/03 14:14:52;;;;;;;7.05;1.80;;;;;;;14.91;29.93;99316.28;5071595;28;20041;-84
2021/05/03 14:17:18;;;;;;;3.78;2.03;;;;;;;14.95;30.50;99312.09;5086036;28;20214;-84
2021/05/03 14:19:49;;;;;;;5.75;1.80;;;;;;;15.25;32.49;99308.06;5086994;28;20048;-82
2021/05/03 14:22:17;;;;;;;3.65;1.80;;;;;;;16.05;30.56;99314.22;5092021;28;20059;-81
2021/05/03 14:24:43;;;;;;;12.43;2.03;;;;;;;16.54;30.73;99298.16;5084434;28;20040;-81
2021/05/03 14:27:10;;;;;;;2.45;1.83;;;;;;;16.02;29.81;99294.66;5073812;28;20052;-80
2021/05/03 14:29:40;;;;;;;3.78;2.10;;;;;;;15.51;30.01;99291.59;5085980;28;20101;-80
2021/05/03 14:32:10;;;;;;;2.85;2.42;;;;;;;15.86;28.75;99290.47;5091199;28;20052;-80
2021/05/03 14:34:37;;;;;;;7.97;2.08;;;;;;;15.93;29.35;99280.34;5085488;28;20071;-80
2021/05/03 14:37:06;;;;;;;4.68;1.98;;;;;;;15.68;29.79;99283.75;5089396;28;20052;-80
2021/05/03 14:39:33;;;;;;;2.58;2.05;;;;;;;15.55;30.28;99286.50;5076706;28;20052;-80
2021/05/03 14:41:59;;;;;;;2.20;2.00;;;;;;;15.72;29.96;99282.25;5087556;28;20071;-80
2021/05/03 14:44:25;;;;;;;8.10;2.08;;;;;;;15.87;29.83;99273.81;5087993;28;20044;-79
2021/05/03 14:46:55;;;;;;;2.35;1.65;;;;;;;15.85;29.52;99264.97;5087619;28;20044;-81
2021/05/03 14:52:06;;;;;;;4.13;2.20;;;;;;;16.15;28.22;99260.81;5066929;28;20052;-81
2021/05/03 14:54:42;;;;;;;2.65;1.88;;;;;;;16.29;28.63;99262.44;5080567;28;20040;-81
2021/05/03 14:57:10;;;;;;;4.07;2.10;;;;;;;16.39;29.19;99254.53;5077233;28;20058;-80
2021/05/03 14:59:38;;;;;;;3.85;2.50;;;;;;;16.38;29.12;99250.13;5083309;28;20442;-81
2021/05/03 15:02:07;;;;;;;6.07;2.58;;;;;;;16.32;28.03;99239.19;5090418;28;20392;-81
2021/05/03 15:04:34;;;;;;;4.07;3.13;;;;;;;16.30;29.25;99244.91;5077582;28;20044;-81
2021/05/03 15:07:04;;;;;;;2.80;1.98;;;;;;;16.59;29.68;99234.34;5089652;28;20048;-80
2021/05/03 15:09:37;;;;;;;4.53;2.50;;;;;;;15.59;29.46;99238.44;5084308;28;20084;-81
2021/05/03 15:12:07;;;;;;;6.30;2.30;;;;;;;15.88;29.54;99234.38;5076281;28;20059;-80
2021/05/03 15:14:42;;;;;;;3.20;1.80;;;;;;;15.84;28.76;99230.38;5076913;28;20044;-80
2021/05/03 15:17:23;;;;;;;3.38;2.70;;;;;;;15.57;28.96;99229.63;5088426;28;20060;-80
2021/05/03 15:19:52;;;;;;;5.40;2.22;;;;;;;15.78;29.25;99223.03;5083922;28;20126;-80
2021/05/03 15:22:19;;;;;;;4.75;2.55;;;;;;;16.05;28.42;99222.91;5087698;28;20603;-80
2021/05/03 15:24:45;;;;;;;2.30;2.10;;;;;;;15.84;29.52;99222.16;5088900;28;20047;-80
2021/05/03 15:27:16;;;;;;;4.90;2.92;;;;;;;15.91;29.16;99214.75;5089201;28;20052;-80
2021/05/03 15:29:56;;;;;;;2.65;1.98;;;;;;;15.95;29.96;99212.41;5088385;28;20071;-81
2021/05/03 15:32:40;;;;;;;7.32;2.35;;;;;;;15.88;29.53;99219.81;5080082;28;20048;-81
2021/05/03 15:35:07;;;;;;;3.58;2.17;;;;;;;15.46;29.69;99203.75;5090680;28;20040;-81
2021/05/03 15:37:35;;;;;;;2.47;1.80;;;;;;;15.37;29.90;99214.09;5094080;28;20056;-81
2021/05/03 15:40:08;;;;;;;5.00;1.85;;;;;;;15.19;30.64;99203.81;5086752;28;20560;-81
2021/05/03 15:42:34;;;;;;;3.85;2.10;;;;;;;15.03;30.54;99187.81;5083133;28;20484;-81
2021/05/03 15:45:01;;;;;;;3.53;1.77;;;;;;;15.17;30.34;99216.84;5082460;28;20048;-81
2021/05/03 15:47:28;;;;;;;3.28;2.00;;;;;;;14.82;30.70;99191.66;5088946;28;20048;-81
2021/05/03 15:49:54;;;;;;;2.70;1.55;;;;;;;14.89;30.99;99202.56;5090175;28;20044;-81
2021/05/03 15:52:20;;;;;;;3.03;1.83;;;;;;;14.96;30.60;99196.03;5094075;28;20479;-81
2021/05/03 15:54:47;;;;;;;2.72;1.52;;;;;;;15.20;30.40;99199.16;5091439;28;20101;-81
2021/05/03 15:57:13;;;;;;;6.72;1.95;;;;;;;15.26;31.54;99205.69;5079791;28;20052;-81
2021/05/03 15:59:39;;;;;;;2.55;2.10;;;;;;;15.33;31.16;99187.34;5093971;28;20055;-80
2021/05/03 16:02:05;;;;;;;7.90;1.58;;;;;;;15.33;30.87;99198.28;5075291;28;20056;-81
2021/05/03 16:04:33;;;;;;;41.58;6.95;;;;;;;15.03;30.31;99199.63;5090377;28;20406;-81
2021/05/03 16:07:15;;;;;;;3.22;1.98;;;;;;;15.09;31.33;99199.84;5077160;28;20052;-81
2021/05/03 16:09:41;;;;;;;6.25;2.30;;;;;;;14.97;32.01;99202.38;5093694;28;20052;-80
2021/05/03 16:12:10;;;;;;;8.18;2.15;;;;;;;14.94;32.69;99192.69;5087589;28;20056;-81
2021/05/03 16:14:37;;;;;;;5.88;1.98;;;;;;;14.91;32.96;99179.41;5074058;28;20041;-81
2021/05/03 16:17:05;;;;;;;3.50;1.73;;;;;;;14.91;32.77;99200.50;5082264;28;20055;-81
2021/05/03 16:19:33;;;;;;;2.25;2.00;;;;;;;14.78;33.17;99179.44;5083789;28;20444;-81
2021/05/03 16:22:15;;;;;;;2.67;1.85;;;;;;;15.07;32.19;99183.63;5078230;28;20048;-81
2021/05/03 16:24:42;;;;;;;2.80;1.80;;;;;;;14.95;31.43;99183.44;5068937;28;20104;-81
2021/05/03 16:27:08;;;;;;;4.82;2.00;;;;;;;14.60;31.54;99180.03;5092626;28;20502;-81
2021/05/03 16:29:34;;;;;;;3.75;1.90;;;;;;;14.92;32.36;99177.50;5091732;28;20552;-80
2021/05/03 16:32:00;;;;;;;2.53;2.13;;;;;;;15.02;31.07;99162.34;5087624;28;20051;-81
2021/05/03 16:34:26;;;;;;;3.67;1.55;;;;;;;15.14;30.98;99170.72;5091886;28;20086;-81
2021/05/03 16:36:56;;;;;;;2.95;1.63;;;;;;;15.21;30.81;99163.34;5084129;28;20480;-81
2021/05/03 16:39:23;;;;;;;2.08;1.70;;;;;;;15.07;30.54;99158.97;5089991;28;20119;-81
2021/05/03 16:41:49;;;;;;;2.47;1.85;;;;;;;15.03;30.47;99150.34;5088632;28;20063;-81
2021/05/03 16:44:15;;;;;;;3.33;2.42;;;;;;;14.74;31.27;99132.50;5087465;28;20051;-81
2021/05/03 16:46:41;;;;;;;4.63;2.20;;;;;;;14.85;31.88;99150.16;5078010;28;20499;-81
2021/05/03 16:49:09;;;;;;;3.85;2.47;;;;;;;14.59;31.54;99148.25;5073177;28;20059;-81
2021/05/03 16:51:36;;;;;;;3.13;2.08;;;;;;;14.52;33.01;99145.53;5092285;28;20060;-81
2021/05/03 16:54:03;;;;;;;2.08;1.60;;;;;;;14.28;33.18;99128.69;5090612;28;20047;-81
2021/05/03 16:56:30;;;;;;;2.78;1.90;;;;;;;14.30;33.96;99128.50;5086002;28;20080;-81
2021/05/03 16:58:56;;;;;;;2.05;1.80;;;;;;;14.36;35.74;99138.59;5086617;28;20060;-81
2021/05/03 17:01:22;;;;;;;4.22;2.47;;;;;;;14.40;35.80;99139.03;5087467;28;20067;-81
2021/05/03 17:03:51;;;;;;;4.10;1.98;;;;;;;14.30;34.10;99145.75;5083883;28;20056;-81
2021/05/03 17:06:17;;;;;;;4.30;2.20;;;;;;;14.30;33.90;99132.09;5098269;28;20055;-81
2021/05/03 17:08:46;;;;;;;3.50;2.10;;;;;;;14.44;34.93;99132.91;5080132;28;20056;-81
2021/05/03 17:11:14;;;;;;;3.53;2.05;;;;;;;14.41;34.99;99124.31;5085106;28;20056;-81
2021/05/03 17:13:41;;;;;;;9.98;2.25;;;;;;;14.48;34.38;99125.97;5090783;28;20072;-81
2021/05/03 17:16:08;;;;;;;4.75;2.22;;;;;;;14.22;33.57;99115.88;5092188;28;20044;-81
2021/05/03 17:18:37;;;;;;;3.80;3.20;;;;;;;14.23;33.39;99105.78;5091849;28;20058;-81
2021/05/03 17:21:12;;;;;;;4.95;3.00;;;;;;;13.97;33.77;99100.09;5083098;28;20052;-81
2021/05/03 17:23:39;;;;;;;6.28;2.75;;;;;;;13.92;33.95;99110.78;5082228;28;20044;-81
2021/05/03 17:26:05;;;;;;;2.90;2.00;;;;;;;13.90;34.01;99109.34;5083252;28;20418;-81
2021/05/03 17:28:32;;;;;;;2.90;2.15;;;;;;;13.99;34.00;99103.44;5072042;28;20054;-81
2021/05/03 17:30:58;;;;;;;4.35;2.10;;;;;;;13.89;35.42;99105.75;5079666;28;20044;-81
2021/05/03 17:33:25;;;;;;;4.32;2.33;;;;;;;13.85;34.12;99098.19;5092129;28;20056;-81
2021/05/03 17:35:52;;;;;;;2.83;2.10;;;;;;;13.60;34.53;99099.59;5091315;28;20040;-81
2021/05/03 17:38:19;;;;;;;3.05;2.13;;;;;;;13.68;35.51;99090.38;5072560;28;20063;-81
2021/05/03 17:40:45;;;;;;;3.15;2.53;;;;;;;13.76;35.77;99078.41;5079854;28;20450;-81
2021/05/03 17:43:12;;;;;;;6.70;2.95;;;;;;;13.83;35.49;99083.88;5087007;28;20440;-81
2021/05/03 17:45:39;;;;;;;7.10;2.95;;;;;;;13.71;36.25;99084.50;5091089;28;20475;-82
2021/05/03 17:48:06;;;;;;;5.78;2.90;;;;;;;13.57;36.10;99077.34;5088057;28;20140;-79
2021/05/03 17:50:32;;;;;;;3.60;2.67;;;;;;;13.52;35.42;99067.03;5087550;28;20051;-81
2021/05/03 17:52:59;;;;;;;4.63;2.35;;;;;;;13.54;35.88;99064.91;5085437;28;20052;-81
2021/05/03 17:55:26;;;;;;;4.25;3.65;;;;;;;13.46;36.96;99078.78;5082441;28;20079;-82
2021/05/03 17:57:52;;;;;;;6.30;3.63;;;;;;;13.30;36.01;99062.72;5084896;28;20080;-82
2021/05/03 18:00:19;;;;;;;6.35;3.63;;;;;;;13.11;36.26;99065.16;5091378;28;20130;-82
2021/05/03 18:02:46;;;;;;;6.60;3.90;;;;;;;13.17;36.75;99071.69;5089865;28;20040;-82
2021/05/03 18:05:14;;;;;;;4.75;3.08;;;;;;;13.09;38.56;99065.38;5073563;28;20059;-82
2021/05/03 18:07:41;;;;;;;4.30;2.60;;;;;;;13.08;41.19;99068.31;5091521;28;20044;-82
2021/05/03 18:10:08;;;;;;;4.53;2.60;;;;;;;12.71;42.93;99065.81;5079092;28;20383;-82
2021/05/03 18:12:42;;;;;;;3.78;2.72;;;;;;;12.53;44.56;99068.25;5090493;28;20055;-82
2021/05/03 18:15:10;;;;;;;8.32;3.10;;;;;;;12.42;45.79;99066.06;5080959;28;20488;-82
2021/05/03 18:17:36;;;;;;;2.58;1.95;;;;;;;12.17;45.29;99050.16;5079650;28;20055;-82
2021/05/03 18:20:09;;;;;;;4.60;2.63;;;;;;;12.24;43.96;99056.50;5086625;28;20049;-82
2021/05/03 18:22:35;;;;;;;5.40;3.78;;;;;;;12.02;42.99;99050.25;5088710;28;20478;-82
2021/05/03 18:25:01;;;;;;;6.65;4.85;;;;;;;11.87;45.16;99058.47;5078676;28;20051;-79
2021/05/03 18:27:27;;;;;;;4.32;2.17;;;;;;;11.68;47.25;99055.38;5073033;28;20052;-81
2021/05/03 18:29:54;;;;;;;3.65;2.22;;;;;;;11.40;47.90;99051.75;5090882;28;20051;-82
2021/05/03 18:32:22;;;;;;;3.75;1.90;;;;;;;11.22;48.16;99054.91;5083232;28;20102;-81
2021/05/03 18:34:48;;;;;;;5.32;3.17;;;;;;;11.00;49.05;99056.72;5087884;28;20044;-82
2021/05/03 18:37:15;;;;;;;7.35;3.40;;;;;;;10.76;50.14;99054.13;5087740;28;20064;-82
2021/05/03 18:39:42;;;;;;;24.92;13.80;;;;;;;10.74;48.73;99053.47;5071736;28;20053;-82
2021/05/03 18:42:08;;;;;;;6.95;4.63;;;;;;;10.58;49.19;99031.91;5084568;28;20052;-82
2021/05/03 18:44:34;;;;;;;3.30;2.17;;;;;;;10.56;49.84;99056.56;5075680;28;20404;-82
2021/05/03 18:47:01;;;;;;;11.57;7.97;;;;;;;10.39;51.81;99053.19;5082777;28;20050;-82
2021/05/03 18:49:33;;;;;;;4.85;3.88;;;;;;;10.11;53.99;99050.22;5079777;28;20044;-82
2021/05/03 18:51:59;;;;;;;6.13;2.20;;;;;;;9.95;51.75;99045.78;5084663;28;20075;-82
2021/05/03 18:54:26;;;;;;;3.50;2.90;;;;;;;9.83;54.92;99049.94;5086461;28;20044;-82
2021/05/03 18:56:59;;;;;;;3.30;2.60;;;;;;;9.63;53.89;99019.75;5090006;28;20097;-83
2021/05/03 18:59:25;;;;;;;7.20;4.35;;;;;;;9.59;53.86;99035.56;5071147;28;20044;-82
2021/05/03 19:01:52;;;;;;;6.32;2.15;;;;;;;9.68;53.65;99049.91;5080137;28;20048;-82
2021/05/03 19:04:21;;;;;;;4.15;2.42;;;;;;;9.51;53.83;99035.63;5090043;28;20048;-81
2021/05/03 19:06:47;;;;;;;6.15;4.45;;;;;;;9.38;55.57;99037.06;5085766;28;20044;-79
2021/05/03 19:09:13;;;;;;;3.35;2.33;;;;;;;9.24;56.57;99028.88;5090595;28;20056;-82
2021/05/03 19:11:40;;;;;;;6.85;3.28;;;;;;;8.96;59.05;99021.25;5082609;28;20040;-82
2021/05/03 19:14:07;;;;;;;29.58;13.88;;;;;;;9.04;57.75;99026.63;5071580;28;20040;-82
2021/05/03 19:16:34;;;;;;;41.90;19.70;;;;;;;8.77;57.97;99023.34;5089196;28;20047;-82
2021/05/03 19:19:02;;;;;;;54.78;23.35;;;;;;;8.75;59.19;99030.84;5072394;28;20040;-82
2021/05/03 19:21:42;;;;;;;18.80;9.77;;;;;;;8.79;58.41;99034.88;5073753;28;20159;-82
2021/05/03 19:24:08;;;;;;;6.60;2.87;;;;;;;8.75;58.11;99024.59;5070500;28;20040;-82
2021/05/03 19:26:37;;;;;;;5.43;2.63;;;;;;;8.73;58.07;99029.31;5089099;28;20051;-82
2021/05/03 19:29:04;;;;;;;7.82;3.92;;;;;;;8.58;59.18;99043.63;5083819;28;20060;-81
2021/05/03 19:31:35;;;;;;;4.05;2.83;;;;;;;8.49;60.61;99036.50;5081584;28;20575;-82
2021/05/03 19:34:02;;;;;;;3.20;1.77;;;;;;;8.33;59.83;99021.16;5082839;28;20053;-81
2021/05/03 19:36:29;;;;;;;2.63;1.90;;;;;;;8.46;58.10;99004.34;5080700;28;20052;-81
2021/05/03 19:38:57;;;;;;;2.47;2.20;;;;;;;8.14;60.00;98996.16;5088907;28;20369;-81
2021/05/03 19:41:23;;;;;;;3.63;2.10;;;;;;;8.10;60.96;99013.75;5077699;28;20600;-82
2021/05/03 19:43:50;;;;;;;3.13;2.15;;;;;;;8.06;58.66;99004.28;5090695;28;20048;-82
2021/05/03 19:46:18;;;;;;;2.42;1.90;;;;;;;8.12;60.04;99010.88;5075366;28;20105;-81
2021/05/03 19:48:44;;;;;;;4.20;1.80;;;;;;;8.17;58.69;99015.78;5090595;28;20044;-81